sensor_id;sensor_type;location;lat;lon;timestamp;P1;durP1;ratioP1;P2;durP2;ratioP2
62463;SDS011;48512;48.552;9.380;2023-07-22T00:01:29;5.82;;;2.67;;
62463;SDS011;48512;48.552;9.380;2023-07-22T00:03:56;3.90;;;2.55;;
62463;SDS011;48512;48.552;9.380;2023-07-22T00:06:22;6.55;;;2.92;;
62463;SDS011;48512;48.552;9.380;2023-07-22T00:08:49;5.32;;;2.70;;
62463;SDS011;48512;48.552;9.380;2023-07-22T00:11:15;5.20;;;3.00;;
62463;SDS011;48512;48.552;9.380;2023-07-22T00:13:42;5.13;;;3.00;;
62463;SDS011;48512;48.552;9.380;2023-07-22T00:16:09;5.72;;;3.08;;
62463;SDS011;48512;48.552;9.380;2023-07-22T00:18:36;6.82;;;2.78;;
62463;SDS011;48512;48.552;9.380;2023-07-22T00:21:02;4.43;;;2.72;;
62463;SDS011;48512;48.552;9.380;2023-07-22T00:23:29;5.13;;;2.92;;
62463;SDS011;48512;48.552;9.380;2023-07-22T00:25:55;5.90;;;2.88;;
62463;SDS011;48512;48.552;9.380;2023-07-22T00:28:22;6.40;;;3.17;;
62463;SDS011;48512;48.552;9.380;2023-07-22T00:30:48;7.47;;;3.13;;
62463;SDS011;48512;48.552;9.380;2023-07-22T00:33:15;4.78;;;2.97;;
62463;SDS011;48512;48.552;9.380;2023-07-22T00:35:41;5.85;;;3.03;;
62463;SDS011;48512;48.552;9.380;2023-07-22T00:38:07;11.10;;;3.25;;
62463;SDS011;48512;48.552;9.380;2023-07-22T00:40:35;6.90;;;3.20;;
62463;SDS011;48512;48.552;9.380;2023-07-22T00:43:01;5.93;;;2.92;;
62463;SDS011;48512;48.552;9.380;2023-07-22T00:45:27;5.95;;;3.45;;
62463;SDS011;48512;48.552;9.380;2023-07-22T00:47:54;6.30;;;3.25;;
62463;SDS011;48512;48.552;9.380;2023-07-22T00:50:20;5.75;;;3.10;;
62463;SDS011;48512;48.552;9.380;2023-07-22T00:52:47;5.90;;;2.90;;
62463;SDS011;48512;48.552;9.380;2023-07-22T00:55:14;7.55;;;3.30;;
62463;SDS011;48512;48.552;9.380;2023-07-22T00:57:40;7.57;;;3.25;;
62463;SDS011;48512;48.552;9.380;2023-07-22T01:00:06;6.70;;;2.97;;
62463;SDS011;48512;48.552;9.380;2023-07-22T01:02:33;4.68;;;2.83;;
62463;SDS011;48512;48.552;9.380;2023-07-22T01:05:00;8.10;;;3.33;;
62463;SDS011;48512;48.552;9.380;2023-07-22T01:07:26;5.68;;;3.33;;
62463;SDS011;48512;48.552;9.380;2023-07-22T01:09:57;6.70;;;3.30;;
62463;SDS011;48512;48.552;9.380;2023-07-22T01:12:26;5.60;;;2.83;;
62463;SDS011;48512;48.552;9.380;2023-07-22T01:14:52;10.20;;;3.80;;
62463;SDS011;48512;48.552;9.380;2023-07-22T01:17:18;6.45;;;3.47;;
62463;SDS011;48512;48.552;9.380;2023-07-22T01:19:45;6.70;;;3.00;;
62463;SDS011;48512;48.552;9.380;2023-07-22T01:22:12;6.97;;;2.97;;
62463;SDS011;48512;48.552;9.380;2023-07-22T01:24:39;5.70;;;3.47;;
62463;SDS011;48512;48.552;9.380;2023-07-22T01:27:05;5.70;;;3.25;;
62463;SDS011;48512;48.552;9.380;2023-07-22T01:29:34;8.02;;;3.03;;
62463;SDS011;48512;48.552;9.380;2023-07-22T01:32:00;6.55;;;3.50;;
62463;SDS011;48512;48.552;9.380;2023-07-22T01:34:27;7.28;;;3.33;;
62463;SDS011;48512;48.552;9.380;2023-07-22T01:36:53;7.07;;;3.47;;
62463;SDS011;48512;48.552;9.380;2023-07-22T01:39:19;9.07;;;3.58;;
62463;SDS011;48512;48.552;9.380;2023-07-22T01:41:46;7.50;;;3.40;;
62463;SDS011;48512;48.552;9.380;2023-07-22T01:44:14;7.75;;;3.65;;
62463;SDS011;48512;48.552;9.380;2023-07-22T01:46:40;5.75;;;2.97;;
62463;SDS011;48512;48.552;9.380;2023-07-22T01:49:08;6.40;;;3.25;;
62463;SDS011;48512;48.552;9.380;2023-07-22T01:51:38;6.20;;;3.13;;
62463;SDS011;48512;48.552;9.380;2023-07-22T01:54:08;4.90;;;3.00;;
62463;SDS011;48512;48.552;9.380;2023-07-22T01:56:35;6.20;;;3.28;;
62463;SDS011;48512;48.552;9.380;2023-07-22T01:59:02;5.78;;;2.92;;
62463;SDS011;48512;48.552;9.380;2023-07-22T02:01:28;7.97;;;3.67;;
62463;SDS011;48512;48.552;9.380;2023-07-22T02:03:55;7.13;;;3.55;;
62463;SDS011;48512;48.552;9.380;2023-07-22T02:06:21;5.43;;;3.25;;
62463;SDS011;48512;48.552;9.380;2023-07-22T02:08:48;6.65;;;3.55;;
62463;SDS011;48512;48.552;9.380;2023-07-22T02:11:14;5.82;;;3.10;;
62463;SDS011;48512;48.552;9.380;2023-07-22T02:13:40;6.93;;;3.40;;
62463;SDS011;48512;48.552;9.380;2023-07-22T02:16:06;7.10;;;3.67;;
62463;SDS011;48512;48.552;9.380;2023-07-22T02:18:33;6.57;;;3.67;;
62463;SDS011;48512;48.552;9.380;2023-07-22T02:20:59;5.53;;;2.95;;
62463;SDS011;48512;48.552;9.380;2023-07-22T02:23:25;6.35;;;3.28;;
62463;SDS011;48512;48.552;9.380;2023-07-22T02:25:51;5.82;;;3.35;;
62463;SDS011;48512;48.552;9.380;2023-07-22T02:28:19;6.90;;;3.67;;
62463;SDS011;48512;48.552;9.380;2023-07-22T02:30:48;6.55;;;2.90;;
62463;SDS011;48512;48.552;9.380;2023-07-22T02:33:15;5.80;;;3.22;;
62463;SDS011;48512;48.552;9.380;2023-07-22T02:35:41;7.38;;;3.33;;
62463;SDS011;48512;48.552;9.380;2023-07-22T02:38:08;7.22;;;3.30;;
62463;SDS011;48512;48.552;9.380;2023-07-22T02:40:35;5.18;;;3.10;;
62463;SDS011;48512;48.552;9.380;2023-07-22T02:43:01;6.63;;;3.33;;
62463;SDS011;48512;48.552;9.380;2023-07-22T02:45:27;5.15;;;3.00;;
62463;SDS011;48512;48.552;9.380;2023-07-22T02:47:54;8.52;;;4.18;;
62463;SDS011;48512;48.552;9.380;2023-07-22T02:50:20;5.78;;;2.85;;
62463;SDS011;48512;48.552;9.380;2023-07-22T02:52:46;5.75;;;3.20;;
62463;SDS011;48512;48.552;9.380;2023-07-22T02:55:14;5.10;;;3.17;;
62463;SDS011;48512;48.552;9.380;2023-07-22T02:57:45;6.53;;;3.10;;
62463;SDS011;48512;48.552;9.380;2023-07-22T03:00:12;6.53;;;3.42;;
62463;SDS011;48512;48.552;9.380;2023-07-22T03:02:42;9.00;;;3.17;;
62463;SDS011;48512;48.552;9.380;2023-07-22T03:05:08;11.05;;;3.60;;
62463;SDS011;48512;48.552;9.380;2023-07-22T03:07:38;7.60;;;3.33;;
62463;SDS011;48512;48.552;9.380;2023-07-22T03:12:32;6.78;;;3.30;;
62463;SDS011;48512;48.552;9.380;2023-07-22T03:14:58;6.10;;;3.58;;
62463;SDS011;48512;48.552;9.380;2023-07-22T03:17:24;9.50;;;3.85;;
62463;SDS011;48512;48.552;9.380;2023-07-22T03:19:51;9.10;;;3.50;;
62463;SDS011;48512;48.552;9.380;2023-07-22T03:22:17;6.60;;;3.40;;
62463;SDS011;48512;48.552;9.380;2023-07-22T03:24:44;8.85;;;3.15;;
62463;SDS011;48512;48.552;9.380;2023-07-22T03:27:11;4.95;;;3.00;;
62463;SDS011;48512;48.552;9.380;2023-07-22T03:29:40;8.73;;;3.65;;
62463;SDS011;48512;48.552;9.380;2023-07-22T03:32:07;9.43;;;3.83;;
62463;SDS011;48512;48.552;9.380;2023-07-22T03:34:34;7.28;;;3.42;;
62463;SDS011;48512;48.552;9.380;2023-07-22T03:37:01;9.02;;;3.60;;
62463;SDS011;48512;48.552;9.380;2023-07-22T03:39:27;8.07;;;3.75;;
62463;SDS011;48512;48.552;9.380;2023-07-22T03:41:53;9.38;;;3.90;;
62463;SDS011;48512;48.552;9.380;2023-07-22T03:44:19;6.63;;;3.20;;
62463;SDS011;48512;48.552;9.380;2023-07-22T03:46:45;6.82;;;3.30;;
62463;SDS011;48512;48.552;9.380;2023-07-22T03:49:12;9.10;;;3.30;;
62463;SDS011;48512;48.552;9.380;2023-07-22T03:51:38;7.30;;;3.40;;
62463;SDS011;48512;48.552;9.380;2023-07-22T03:54:04;8.35;;;3.75;;
62463;SDS011;48512;48.552;9.380;2023-07-22T03:56:30;7.07;;;3.45;;
62463;SDS011;48512;48.552;9.380;2023-07-22T03:58:56;7.30;;;3.22;;
62463;SDS011;48512;48.552;9.380;2023-07-22T04:01:23;9.63;;;3.72;;
62463;SDS011;48512;48.552;9.380;2023-07-22T04:03:49;7.82;;;4.30;;
62463;SDS011;48512;48.552;9.380;2023-07-22T04:06:15;8.93;;;3.17;;
62463;SDS011;48512;48.552;9.380;2023-07-22T04:08:41;7.13;;;3.75;;
62463;SDS011;48512;48.552;9.380;2023-07-22T04:11:07;10.32;;;3.88;;
62463;SDS011;48512;48.552;9.380;2023-07-22T04:13:33;7.03;;;3.53;;
62463;SDS011;48512;48.552;9.380;2023-07-22T04:16:00;6.57;;;3.38;;
62463;SDS011;48512;48.552;9.380;2023-07-22T04:18:27;6.93;;;3.63;;
62463;SDS011;48512;48.552;9.380;2023-07-22T04:20:59;7.45;;;3.80;;
62463;SDS011;48512;48.552;9.380;2023-07-22T04:23:25;8.07;;;4.07;;
62463;SDS011;48512;48.552;9.380;2023-07-22T04:25:52;9.98;;;5.07;;
62463;SDS011;48512;48.552;9.380;2023-07-22T04:28:18;10.75;;;4.45;;
62463;SDS011;48512;48.552;9.380;2023-07-22T04:30:53;11.10;;;5.05;;
62463;SDS011;48512;48.552;9.380;2023-07-22T04:33:21;9.43;;;5.75;;
62463;SDS011;48512;48.552;9.380;2023-07-22T04:35:47;12.25;;;5.97;;
62463;SDS011;48512;48.552;9.380;2023-07-22T04:38:13;14.13;;;5.80;;
62463;SDS011;48512;48.552;9.380;2023-07-22T04:40:43;10.35;;;5.57;;
62463;SDS011;48512;48.552;9.380;2023-07-22T04:43:09;10.00;;;5.72;;
62463;SDS011;48512;48.552;9.380;2023-07-22T04:45:36;11.48;;;5.60;;
62463;SDS011;48512;48.552;9.380;2023-07-22T04:48:02;12.23;;;6.03;;
62463;SDS011;48512;48.552;9.380;2023-07-22T04:50:28;10.13;;;5.50;;
62463;SDS011;48512;48.552;9.380;2023-07-22T04:52:54;10.98;;;5.70;;
62463;SDS011;48512;48.552;9.380;2023-07-22T04:55:20;13.20;;;6.18;;
62463;SDS011;48512;48.552;9.380;2023-07-22T04:57:47;9.70;;;5.78;;
62463;SDS011;48512;48.552;9.380;2023-07-22T05:00:14;8.45;;;5.40;;
62463;SDS011;48512;48.552;9.380;2023-07-22T05:02:42;12.43;;;5.43;;
62463;SDS011;48512;48.552;9.380;2023-07-22T05:05:12;11.07;;;5.13;;
62463;SDS011;48512;48.552;9.380;2023-07-22T05:07:39;10.23;;;4.90;;
62463;SDS011;48512;48.552;9.380;2023-07-22T05:10:06;14.63;;;5.38;;
62463;SDS011;48512;48.552;9.380;2023-07-22T05:12:38;9.70;;;5.40;;
62463;SDS011;48512;48.552;9.380;2023-07-22T05:15:05;12.85;;;5.43;;
62463;SDS011;48512;48.552;9.380;2023-07-22T05:17:32;9.68;;;4.65;;
62463;SDS011;48512;48.552;9.380;2023-07-22T05:19:58;8.88;;;5.10;;
62463;SDS011;48512;48.552;9.380;2023-07-22T05:22:24;9.13;;;4.82;;
62463;SDS011;48512;48.552;9.380;2023-07-22T05:24:50;10.57;;;5.35;;
62463;SDS011;48512;48.552;9.380;2023-07-22T05:27:17;13.07;;;5.18;;
62463;SDS011;48512;48.552;9.380;2023-07-22T05:29:44;10.82;;;5.82;;
62463;SDS011;48512;48.552;9.380;2023-07-22T05:32:11;13.57;;;5.30;;
62463;SDS011;48512;48.552;9.380;2023-07-22T05:34:37;12.68;;;6.18;;
62463;SDS011;48512;48.552;9.380;2023-07-22T05:37:03;12.30;;;5.88;;
62463;SDS011;48512;48.552;9.380;2023-07-22T05:39:29;14.82;;;5.97;;
62463;SDS011;48512;48.552;9.380;2023-07-22T05:41:55;12.90;;;5.88;;
62463;SDS011;48512;48.552;9.380;2023-07-22T05:44:22;10.05;;;5.15;;
62463;SDS011;48512;48.552;9.380;2023-07-22T05:46:48;13.15;;;5.75;;
62463;SDS011;48512;48.552;9.380;2023-07-22T05:49:14;10.68;;;5.70;;
62463;SDS011;48512;48.552;9.380;2023-07-22T05:51:41;12.40;;;5.78;;
62463;SDS011;48512;48.552;9.380;2023-07-22T05:54:07;10.95;;;5.18;;
62463;SDS011;48512;48.552;9.380;2023-07-22T05:56:33;13.25;;;5.32;;
62463;SDS011;48512;48.552;9.380;2023-07-22T05:59:00;14.35;;;5.93;;
62463;SDS011;48512;48.552;9.380;2023-07-22T06:01:26;13.05;;;5.40;;
62463;SDS011;48512;48.552;9.380;2023-07-22T06:03:52;16.08;;;5.82;;
62463;SDS011;48512;48.552;9.380;2023-07-22T06:06:19;12.15;;;5.28;;
62463;SDS011;48512;48.552;9.380;2023-07-22T06:08:45;13.02;;;5.65;;
62463;SDS011;48512;48.552;9.380;2023-07-22T06:11:11;13.95;;;5.75;;
62463;SDS011;48512;48.552;9.380;2023-07-22T06:13:37;11.13;;;4.50;;
62463;SDS011;48512;48.552;9.380;2023-07-22T06:16:03;9.02;;;3.67;;
62463;SDS011;48512;48.552;9.380;2023-07-22T06:18:29;11.77;;;3.67;;
62463;SDS011;48512;48.552;9.380;2023-07-22T06:20:56;7.65;;;4.63;;
62463;SDS011;48512;48.552;9.380;2023-07-22T06:23:22;10.15;;;3.45;;
62463;SDS011;48512;48.552;9.380;2023-07-22T06:25:48;8.40;;;3.55;;
62463;SDS011;48512;48.552;9.380;2023-07-22T06:28:14;9.63;;;3.83;;
62463;SDS011;48512;48.552;9.380;2023-07-22T06:30:40;8.52;;;4.00;;
62463;SDS011;48512;48.552;9.380;2023-07-22T06:33:07;10.77;;;4.03;;
62463;SDS011;48512;48.552;9.380;2023-07-22T06:35:33;10.35;;;4.47;;
62463;SDS011;48512;48.552;9.380;2023-07-22T06:37:59;11.10;;;4.10;;
62463;SDS011;48512;48.552;9.380;2023-07-22T06:40:25;11.35;;;3.85;;
62463;SDS011;48512;48.552;9.380;2023-07-22T06:42:51;11.48;;;3.83;;
62463;SDS011;48512;48.552;9.380;2023-07-22T06:45:18;8.80;;;3.45;;
62463;SDS011;48512;48.552;9.380;2023-07-22T06:47:44;7.07;;;3.50;;
62463;SDS011;48512;48.552;9.380;2023-07-22T06:50:12;7.30;;;3.28;;
62463;SDS011;48512;48.552;9.380;2023-07-22T06:52:38;7.38;;;3.38;;
62463;SDS011;48512;48.552;9.380;2023-07-22T06:55:05;6.68;;;3.30;;
62463;SDS011;48512;48.552;9.380;2023-07-22T06:57:32;7.95;;;3.38;;
62463;SDS011;48512;48.552;9.380;2023-07-22T06:59:59;7.35;;;3.38;;
62463;SDS011;48512;48.552;9.380;2023-07-22T07:02:25;7.43;;;2.90;;
62463;SDS011;48512;48.552;9.380;2023-07-22T07:04:51;7.50;;;3.15;;
62463;SDS011;48512;48.552;9.380;2023-07-22T07:07:17;6.20;;;3.03;;
62463;SDS011;48512;48.552;9.380;2023-07-22T07:09:44;6.63;;;2.90;;
62463;SDS011;48512;48.552;9.380;2023-07-22T07:12:10;9.13;;;4.38;;
62463;SDS011;48512;48.552;9.380;2023-07-22T07:14:37;8.40;;;3.75;;
62463;SDS011;48512;48.552;9.380;2023-07-22T07:17:03;9.00;;;3.30;;
62463;SDS011;48512;48.552;9.380;2023-07-22T07:19:29;5.15;;;3.20;;
62463;SDS011;48512;48.552;9.380;2023-07-22T07:21:56;9.00;;;3.78;;
62463;SDS011;48512;48.552;9.380;2023-07-22T07:24:22;7.70;;;3.53;;
62463;SDS011;48512;48.552;9.380;2023-07-22T07:26:48;5.40;;;3.20;;
62463;SDS011;48512;48.552;9.380;2023-07-22T07:29:14;7.60;;;3.28;;
62463;SDS011;48512;48.552;9.380;2023-07-22T07:31:40;7.38;;;3.85;;
62463;SDS011;48512;48.552;9.380;2023-07-22T07:34:06;6.72;;;3.47;;
62463;SDS011;48512;48.552;9.380;2023-07-22T07:36:33;9.43;;;3.70;;
62463;SDS011;48512;48.552;9.380;2023-07-22T07:39:00;4.45;;;3.03;;
62463;SDS011;48512;48.552;9.380;2023-07-22T07:41:26;5.88;;;3.00;;
62463;SDS011;48512;48.552;9.380;2023-07-22T07:43:53;4.88;;;2.63;;
62463;SDS011;48512;48.552;9.380;2023-07-22T07:46:21;6.10;;;3.00;;
62463;SDS011;48512;48.552;9.380;2023-07-22T07:48:53;8.23;;;3.30;;
62463;SDS011;48512;48.552;9.380;2023-07-22T07:51:25;5.28;;;2.80;;
62463;SDS011;48512;48.552;9.380;2023-07-22T07:53:52;10.02;;;5.85;;
62463;SDS011;48512;48.552;9.380;2023-07-22T07:56:19;6.57;;;2.92;;
62463;SDS011;48512;48.552;9.380;2023-07-22T07:58:46;8.13;;;2.80;;
62463;SDS011;48512;48.552;9.380;2023-07-22T08:01:13;5.03;;;2.75;;
62463;SDS011;48512;48.552;9.380;2023-07-22T08:03:40;7.82;;;4.45;;
62463;SDS011;48512;48.552;9.380;2023-07-22T08:06:10;4.88;;;2.38;;
62463;SDS011;48512;48.552;9.380;2023-07-22T08:08:37;6.07;;;2.75;;
62463;SDS011;48512;48.552;9.380;2023-07-22T08:11:08;4.07;;;2.78;;
62463;SDS011;48512;48.552;9.380;2023-07-22T08:13:36;6.45;;;2.78;;
62463;SDS011;48512;48.552;9.380;2023-07-22T08:16:04;4.30;;;2.75;;
62463;SDS011;48512;48.552;9.380;2023-07-22T08:18:31;4.75;;;2.60;;
62463;SDS011;48512;48.552;9.380;2023-07-22T08:20:58;4.78;;;2.30;;
62463;SDS011;48512;48.552;9.380;2023-07-22T08:23:25;3.88;;;2.30;;
62463;SDS011;48512;48.552;9.380;2023-07-22T08:25:51;4.22;;;2.17;;
62463;SDS011;48512;48.552;9.380;2023-07-22T08:28:18;5.13;;;2.55;;
62463;SDS011;48512;48.552;9.380;2023-07-22T08:30:44;4.85;;;2.70;;
62463;SDS011;48512;48.552;9.380;2023-07-22T08:33:11;7.00;;;3.05;;
62463;SDS011;48512;48.552;9.380;2023-07-22T08:35:38;4.53;;;2.40;;
62463;SDS011;48512;48.552;9.380;2023-07-22T08:38:05;5.40;;;2.55;;
62463;SDS011;48512;48.552;9.380;2023-07-22T08:40:39;6.93;;;2.45;;
62463;SDS011;48512;48.552;9.380;2023-07-22T08:43:07;5.05;;;2.60;;
62463;SDS011;48512;48.552;9.380;2023-07-22T08:45:35;5.30;;;2.90;;
62463;SDS011;48512;48.552;9.380;2023-07-22T08:48:03;4.13;;;2.58;;
62463;SDS011;48512;48.552;9.380;2023-07-22T08:50:34;6.68;;;2.60;;
62463;SDS011;48512;48.552;9.380;2023-07-22T08:53:10;4.80;;;2.60;;
62463;SDS011;48512;48.552;9.380;2023-07-22T08:55:38;4.70;;;2.38;;
62463;SDS011;48512;48.552;9.380;2023-07-22T08:58:08;4.97;;;2.60;;
62463;SDS011;48512;48.552;9.380;2023-07-22T09:00:35;4.25;;;2.30;;
62463;SDS011;48512;48.552;9.380;2023-07-22T09:03:02;4.03;;;2.55;;
62463;SDS011;48512;48.552;9.380;2023-07-22T09:05:33;6.35;;;2.90;;
62463;SDS011;48512;48.552;9.380;2023-07-22T09:08:04;4.28;;;2.60;;
62463;SDS011;48512;48.552;9.380;2023-07-22T09:10:33;4.68;;;2.53;;
62463;SDS011;48512;48.552;9.380;2023-07-22T09:12:59;3.60;;;2.17;;
62463;SDS011;48512;48.552;9.380;2023-07-22T09:15:26;4.68;;;2.42;;
62463;SDS011;48512;48.552;9.380;2023-07-22T09:17:53;2.85;;;2.20;;
62463;SDS011;48512;48.552;9.380;2023-07-22T09:20:20;3.38;;;2.20;;
62463;SDS011;48512;48.552;9.380;2023-07-22T09:22:47;3.95;;;2.40;;
62463;SDS011;48512;48.552;9.380;2023-07-22T09:32:56;2.72;;;2.05;;
62463;SDS011;48512;48.552;9.380;2023-07-22T09:35:25;4.35;;;2.08;;
62463;SDS011;48512;48.552;9.380;2023-07-22T09:37:53;4.30;;;2.25;;
62463;SDS011;48512;48.552;9.380;2023-07-22T09:40:20;3.92;;;2.10;;
62463;SDS011;48512;48.552;9.380;2023-07-22T09:42:49;3.20;;;2.08;;
62463;SDS011;48512;48.552;9.380;2023-07-22T09:45:17;3.25;;;1.85;;
62463;SDS011;48512;48.552;9.380;2023-07-22T09:47:48;4.15;;;2.30;;
62463;SDS011;48512;48.552;9.380;2023-07-22T09:50:22;3.80;;;2.42;;
62463;SDS011;48512;48.552;9.380;2023-07-22T09:55:22;3.42;;;1.92;;
62463;SDS011;48512;48.552;9.380;2023-07-22T09:57:50;5.43;;;3.10;;
62463;SDS011;48512;48.552;9.380;2023-07-22T10:00:19;3.20;;;2.10;;
62463;SDS011;48512;48.552;9.380;2023-07-22T10:02:47;3.15;;;2.30;;
62463;SDS011;48512;48.552;9.380;2023-07-22T10:05:20;2.33;;;1.70;;
62463;SDS011;48512;48.552;9.380;2023-07-22T10:07:48;4.40;;;1.73;;
62463;SDS011;48512;48.552;9.380;2023-07-22T10:10:17;2.95;;;1.83;;
62463;SDS011;48512;48.552;9.380;2023-07-22T10:15:13;4.60;;;2.10;;
62463;SDS011;48512;48.552;9.380;2023-07-22T10:17:40;3.03;;;2.00;;
62463;SDS011;48512;48.552;9.380;2023-07-22T10:20:08;3.53;;;2.22;;
62463;SDS011;48512;48.552;9.380;2023-07-22T10:22:41;3.60;;;2.00;;
62463;SDS011;48512;48.552;9.380;2023-07-22T10:27:36;2.22;;;1.60;;
62463;SDS011;48512;48.552;9.380;2023-07-22T10:30:05;3.90;;;2.08;;
62463;SDS011;48512;48.552;9.380;2023-07-22T10:32:33;5.40;;;1.60;;
62463;SDS011;48512;48.552;9.380;2023-07-22T10:35:02;2.53;;;1.80;;
62463;SDS011;48512;48.552;9.380;2023-07-22T10:37:30;2.53;;;1.70;;
62463;SDS011;48512;48.552;9.380;2023-07-22T10:40:01;2.40;;;1.60;;
62463;SDS011;48512;48.552;9.380;2023-07-22T10:42:51;1.90;;;1.67;;
62463;SDS011;48512;48.552;9.380;2023-07-22T10:45:32;4.13;;;1.75;;
62463;SDS011;48512;48.552;9.380;2023-07-22T10:47:59;7.75;;;1.80;;
62463;SDS011;48512;48.552;9.380;2023-07-22T10:53:09;3.40;;;2.20;;
62463;SDS011;48512;48.552;9.380;2023-07-22T11:06:58;4.20;;;2.00;;
62463;SDS011;48512;48.552;9.380;2023-07-22T11:11:58;5.55;;;1.90;;
62463;SDS011;48512;48.552;9.380;2023-07-22T11:14:27;1.98;;;1.60;;
62463;SDS011;48512;48.552;9.380;2023-07-22T11:16:54;3.42;;;1.85;;
62463;SDS011;48512;48.552;9.380;2023-07-22T11:21:50;3.45;;;2.03;;
62463;SDS011;48512;48.552;9.380;2023-07-22T11:24:17;2.70;;;1.95;;
62463;SDS011;48512;48.552;9.380;2023-07-22T11:26:45;3.00;;;1.80;;
62463;SDS011;48512;48.552;9.380;2023-07-22T11:29:12;3.58;;;1.60;;
62463;SDS011;48512;48.552;9.380;2023-07-22T11:31:41;2.35;;;1.83;;
62463;SDS011;48512;48.552;9.380;2023-07-22T11:34:09;5.03;;;2.00;;
62463;SDS011;48512;48.552;9.380;2023-07-22T11:36:35;4.93;;;2.20;;
62463;SDS011;48512;48.552;9.380;2023-07-22T11:39:05;5.45;;;1.92;;
62463;SDS011;48512;48.552;9.380;2023-07-22T11:41:33;3.08;;;1.80;;
62463;SDS011;48512;48.552;9.380;2023-07-22T11:44:00;3.58;;;2.10;;
62463;SDS011;48512;48.552;9.380;2023-07-22T11:46:27;2.67;;;1.70;;
62463;SDS011;48512;48.552;9.380;2023-07-22T11:48:54;5.00;;;2.10;;
62463;SDS011;48512;48.552;9.380;2023-07-22T11:51:22;3.25;;;1.90;;
62463;SDS011;48512;48.552;9.380;2023-07-22T11:53:52;3.75;;;1.83;;
62463;SDS011;48512;48.552;9.380;2023-07-22T11:56:20;2.67;;;2.10;;
62463;SDS011;48512;48.552;9.380;2023-07-22T11:58:55;2.72;;;1.90;;
62463;SDS011;48512;48.552;9.380;2023-07-22T12:01:22;2.85;;;1.95;;
62463;SDS011;48512;48.552;9.380;2023-07-22T12:03:49;2.58;;;1.98;;
62463;SDS011;48512;48.552;9.380;2023-07-22T12:06:21;2.72;;;2.25;;
62463;SDS011;48512;48.552;9.380;2023-07-22T12:08:51;3.63;;;2.10;;
62463;SDS011;48512;48.552;9.380;2023-07-22T12:11:18;3.72;;;1.90;;
62463;SDS011;48512;48.552;9.380;2023-07-22T12:13:45;6.43;;;1.85;;
62463;SDS011;48512;48.552;9.380;2023-07-22T12:16:22;2.85;;;2.10;;
62463;SDS011;48512;48.552;9.380;2023-07-22T12:18:54;3.75;;;2.20;;
62463;SDS011;48512;48.552;9.380;2023-07-22T12:21:21;3.83;;;2.10;;
62463;SDS011;48512;48.552;9.380;2023-07-22T12:23:47;3.10;;;2.10;;
62463;SDS011;48512;48.552;9.380;2023-07-22T12:26:14;4.55;;;2.30;;
62463;SDS011;48512;48.552;9.380;2023-07-22T12:28:40;5.75;;;2.53;;
62463;SDS011;48512;48.552;9.380;2023-07-22T12:31:07;2.97;;;2.03;;
62463;SDS011;48512;48.552;9.380;2023-07-22T12:33:33;5.07;;;2.15;;
62463;SDS011;48512;48.552;9.380;2023-07-22T12:35:59;3.97;;;1.80;;
62463;SDS011;48512;48.552;9.380;2023-07-22T12:38:25;2.65;;;1.95;;
62463;SDS011;48512;48.552;9.380;2023-07-22T12:40:51;4.38;;;2.10;;
62463;SDS011;48512;48.552;9.380;2023-07-22T12:43:18;6.63;;;1.98;;
62463;SDS011;48512;48.552;9.380;2023-07-22T12:45:44;3.60;;;1.85;;
62463;SDS011;48512;48.552;9.380;2023-07-22T12:48:10;3.05;;;2.00;;
62463;SDS011;48512;48.552;9.380;2023-07-22T12:50:36;3.38;;;2.30;;
62463;SDS011;48512;48.552;9.380;2023-07-22T12:53:02;3.28;;;2.55;;
62463;SDS011;48512;48.552;9.380;2023-07-22T12:55:29;5.03;;;2.10;;
62463;SDS011;48512;48.552;9.380;2023-07-22T12:57:55;2.50;;;2.00;;
62463;SDS011;48512;48.552;9.380;2023-07-22T13:00:21;5.28;;;2.25;;
62463;SDS011;48512;48.552;9.380;2023-07-22T13:02:48;3.25;;;2.20;;
62463;SDS011;48512;48.552;9.380;2023-07-22T13:05:14;4.13;;;2.40;;
62463;SDS011;48512;48.552;9.380;2023-07-22T13:07:40;2.88;;;2.10;;
62463;SDS011;48512;48.552;9.380;2023-07-22T13:10:06;2.67;;;1.90;;
62463;SDS011;48512;48.552;9.380;2023-07-22T13:12:36;3.10;;;2.03;;
62463;SDS011;48512;48.552;9.380;2023-07-22T13:15:03;3.33;;;2.10;;
62463;SDS011;48512;48.552;9.380;2023-07-22T13:17:31;2.03;;;1.83;;
62463;SDS011;48512;48.552;9.380;2023-07-22T13:19:57;5.30;;;2.38;;
62463;SDS011;48512;48.552;9.380;2023-07-22T13:22:23;3.88;;;2.28;;
62463;SDS011;48512;48.552;9.380;2023-07-22T13:24:49;4.47;;;2.20;;
62463;SDS011;48512;48.552;9.380;2023-07-22T13:27:16;2.60;;;2.00;;
62463;SDS011;48512;48.552;9.380;2023-07-22T13:29:42;3.40;;;2.38;;
62463;SDS011;48512;48.552;9.380;2023-07-22T13:32:08;4.03;;;2.42;;
62463;SDS011;48512;48.552;9.380;2023-07-22T13:34:34;3.67;;;1.98;;
62463;SDS011;48512;48.552;9.380;2023-07-22T13:37:00;2.88;;;2.13;;
62463;SDS011;48512;48.552;9.380;2023-07-22T13:39:28;3.80;;;2.15;;
62463;SDS011;48512;48.552;9.380;2023-07-22T13:41:54;2.33;;;1.95;;
62463;SDS011;48512;48.552;9.380;2023-07-22T13:44:21;2.78;;;2.15;;
62463;SDS011;48512;48.552;9.380;2023-07-22T13:46:47;2.58;;;2.15;;
62463;SDS011;48512;48.552;9.380;2023-07-22T13:49:13;3.85;;;2.28;;
62463;SDS011;48512;48.552;9.380;2023-07-22T13:51:41;2.28;;;2.00;;
62463;SDS011;48512;48.552;9.380;2023-07-22T13:54:07;2.40;;;2.08;;
62463;SDS011;48512;48.552;9.380;2023-07-22T13:56:33;4.70;;;2.00;;
62463;SDS011;48512;48.552;9.380;2023-07-22T13:59:02;4.45;;;2.15;;
62463;SDS011;48512;48.552;9.380;2023-07-22T14:01:30;4.00;;;2.47;;
62463;SDS011;48512;48.552;9.380;2023-07-22T14:03:57;2.33;;;2.13;;
62463;SDS011;48512;48.552;9.380;2023-07-22T14:06:23;2.83;;;2.10;;
62463;SDS011;48512;48.552;9.380;2023-07-22T14:08:49;2.80;;;2.00;;
62463;SDS011;48512;48.552;9.380;2023-07-22T14:11:15;3.78;;;2.22;;
62463;SDS011;48512;48.552;9.380;2023-07-22T14:13:42;6.03;;;2.63;;
62463;SDS011;48512;48.552;9.380;2023-07-22T14:16:08;3.67;;;2.40;;
62463;SDS011;48512;48.552;9.380;2023-07-22T14:18:34;2.53;;;2.13;;
62463;SDS011;48512;48.552;9.380;2023-07-22T14:21:00;2.50;;;1.95;;
62463;SDS011;48512;48.552;9.380;2023-07-22T14:23:26;3.63;;;2.40;;
62463;SDS011;48512;48.552;9.380;2023-07-22T14:25:52;3.47;;;2.50;;
62463;SDS011;48512;48.552;9.380;2023-07-22T14:28:18;3.95;;;2.30;;
62463;SDS011;48512;48.552;9.380;2023-07-22T14:30:45;3.30;;;2.40;;
62463;SDS011;48512;48.552;9.380;2023-07-22T14:33:11;3.10;;;2.30;;
62463;SDS011;48512;48.552;9.380;2023-07-22T14:35:37;5.45;;;2.65;;
62463;SDS011;48512;48.552;9.380;2023-07-22T14:38:04;4.88;;;2.65;;
62463;SDS011;48512;48.552;9.380;2023-07-22T14:40:30;4.00;;;2.50;;
62463;SDS011;48512;48.552;9.380;2023-07-22T14:42:56;4.65;;;2.85;;
62463;SDS011;48512;48.552;9.380;2023-07-22T14:45:22;4.32;;;2.40;;
62463;SDS011;48512;48.552;9.380;2023-07-22T14:47:48;3.28;;;2.30;;
62463;SDS011;48512;48.552;9.380;2023-07-22T14:50:15;6.32;;;3.22;;
62463;SDS011;48512;48.552;9.380;2023-07-22T14:52:41;6.22;;;3.22;;
62463;SDS011;48512;48.552;9.380;2023-07-22T14:55:08;5.78;;;3.28;;
62463;SDS011;48512;48.552;9.380;2023-07-22T14:57:34;4.22;;;2.80;;
62463;SDS011;48512;48.552;9.380;2023-07-22T15:00:01;6.15;;;3.28;;
62463;SDS011;48512;48.552;9.380;2023-07-22T15:02:30;5.35;;;2.95;;
62463;SDS011;48512;48.552;9.380;2023-07-22T15:04:56;3.72;;;2.60;;
62463;SDS011;48512;48.552;9.380;2023-07-22T15:07:22;5.35;;;2.63;;
62463;SDS011;48512;48.552;9.380;2023-07-22T15:09:49;3.90;;;2.78;;
62463;SDS011;48512;48.552;9.380;2023-07-22T15:12:15;5.63;;;2.63;;
62463;SDS011;48512;48.552;9.380;2023-07-22T15:14:41;4.07;;;2.72;;
62463;SDS011;48512;48.552;9.380;2023-07-22T15:17:07;7.90;;;3.10;;
62463;SDS011;48512;48.552;9.380;2023-07-22T15:19:33;3.85;;;2.70;;
62463;SDS011;48512;48.552;9.380;2023-07-22T15:22:00;4.85;;;2.67;;